createdAt,value
2018-09-19T00:01:23.304Z,6.67
2018-09-19T00:03:50.857Z,7.57
2018-09-19T00:06:24.752Z,7.73
2018-09-19T00:08:53.273Z,6.63
2018-09-19T00:11:21.147Z,6.93
2018-09-19T00:13:48.300Z,7.17
2018-09-19T00:16:23.302Z,7.13
2018-09-19T00:18:51.792Z,7.37
2018-09-19T00:21:29.962Z,6.70
2018-09-19T00:23:57.693Z,7.50
2018-09-19T00:26:25.295Z,7.37
2018-09-19T00:28:52.556Z,8.00
2018-09-19T00:31:20.055Z,7.17
2018-09-19T00:33:54.892Z,8.40
2018-09-19T00:36:30.969Z,7.20
2018-09-19T00:39:04.390Z,7.83
2018-09-19T00:41:46.587Z,7.90
2018-09-19T00:44:29.949Z,7.57
2018-09-19T00:47:08.059Z,7.83
2018-09-19T00:49:44.351Z,8.13
2018-09-19T00:52:12.383Z,7.70
2018-09-19T00:54:46.919Z,8.27
2018-09-19T00:57:35.140Z,8.00
2018-09-19T01:00:04.645Z,7.80
2018-09-19T01:02:36.615Z,7.93
2018-09-19T01:05:08.675Z,7.90
2018-09-19T01:07:44.811Z,7.87
2018-09-19T01:10:23.912Z,7.43
2018-09-19T01:12:59.933Z,8.37
2018-09-19T01:15:27.835Z,7.30
2018-09-19T01:18:02.772Z,8.07
2018-09-19T01:20:39.951Z,8.07
2018-09-19T01:23:08.120Z,8.60
2018-09-19T01:25:37.587Z,7.47
2018-09-19T01:28:06.592Z,8.10
2018-09-19T01:30:34.890Z,8.10
2018-09-19T01:33:03.521Z,9.07
2018-09-19T01:35:32.335Z,8.80
2018-09-19T01:38:02.388Z,8.20
2018-09-19T01:40:30.592Z,8.63
2018-09-19T01:42:58.718Z,8.83
2018-09-19T01:45:26.706Z,8.90
2018-09-19T01:48:01.198Z,8.37
2018-09-19T01:50:28.606Z,7.53
2018-09-19T01:52:59.608Z,8.47
2018-09-19T01:55:27.145Z,7.77
2018-09-19T01:57:54.969Z,8.30
2018-09-19T02:00:22.708Z,7.93
2018-09-19T02:02:50.469Z,7.80
2018-09-19T02:05:19.501Z,9.00
2018-09-19T02:07:49.121Z,8.10
2018-09-19T02:10:17.639Z,9.10
2018-09-19T02:12:53.992Z,9.00
2018-09-19T02:15:28.419Z,8.78
2018-09-19T02:17:57.938Z,8.47
2018-09-19T02:20:32.151Z,8.17
2018-09-19T02:23:13.835Z,8.70
2018-09-19T02:25:49.944Z,7.80
2018-09-19T02:28:24.378Z,7.53
2018-09-19T02:31:08.172Z,8.00
2018-09-19T02:33:44.737Z,7.85
2018-09-19T02:36:26.659Z,8.27
2018-09-19T02:39:08.617Z,8.83
2018-09-19T02:41:44.262Z,8.73
2018-09-19T02:44:26.241Z,8.93
2018-09-19T02:47:08.218Z,9.07
2018-09-19T02:49:51.131Z,9.10
2018-09-19T02:52:26.253Z,8.33
2018-09-19T02:55:04.049Z,8.10
2018-09-19T02:57:44.774Z,8.03
2018-09-19T03:00:24.925Z,9.13
2018-09-19T03:05:42.956Z,9.40
2018-09-19T03:08:19.330Z,8.77
2018-09-19T03:10:53.549Z,8.77
2018-09-19T03:13:35.299Z,8.80
2018-09-19T03:16:10.150Z,7.47
2018-09-19T03:18:48.321Z,9.03
2018-09-19T03:21:27.639Z,7.63
2018-09-19T03:24:01.240Z,8.97
2018-09-19T03:26:39.897Z,8.50
2018-09-19T03:29:19.520Z,8.80
2018-09-19T03:31:53.521Z,8.20
2018-09-19T03:34:30.188Z,8.47
2018-09-19T03:36:59.704Z,9.10
2018-09-19T03:39:34.531Z,8.23
2018-09-19T03:42:14.338Z,8.97
2018-09-19T03:44:54.454Z,9.33
2018-09-19T03:47:34.347Z,9.27
2018-09-19T03:50:03.929Z,8.97
2018-09-19T03:52:31.747Z,8.10
2018-09-19T03:54:59.156Z,8.30
2018-09-19T03:57:31.885Z,8.60
2018-09-19T04:00:05.393Z,8.17
2018-09-19T04:02:41.020Z,9.30
2018-09-19T04:05:21.044Z,9.10
2018-09-19T04:07:53.855Z,8.60
2018-09-19T04:10:28.006Z,8.23
2018-09-19T04:13:03.392Z,8.50
2018-09-19T04:15:44.726Z,8.30
2018-09-19T04:18:15.287Z,8.23
2018-09-19T04:20:58.605Z,7.80
2018-09-19T04:23:29.785Z,6.80
2018-09-19T04:26:07.461Z,7.90
2018-09-19T04:28:39.289Z,6.10
2018-09-19T04:31:16.381Z,6.90
2018-09-19T04:33:50.919Z,6.60
2018-09-19T04:36:24.298Z,6.07
2018-09-19T04:39:05.910Z,5.62
2018-09-19T04:41:44.747Z,6.50
2018-09-19T04:44:26.518Z,6.17
2018-09-19T04:47:00.748Z,6.35
2018-09-19T04:49:44.530Z,4.55
2018-09-19T04:52:19.621Z,4.00
2018-09-19T04:55:04.979Z,5.37
2018-09-19T04:57:33.384Z,4.42
2018-09-19T05:00:07.732Z,4.85
2018-09-19T05:02:46.107Z,4.53
2018-09-19T05:05:19.460Z,5.15
2018-09-19T05:07:56.785Z,5.22
2018-09-19T05:10:44.424Z,4.53
2018-09-19T05:13:23.863Z,5.45
2018-09-19T05:15:59.660Z,4.90
2018-09-19T05:18:41.666Z,5.20
2018-09-19T05:21:20.876Z,5.12
2018-09-19T05:24:09.479Z,4.70
2018-09-19T05:26:37.378Z,5.40
2018-09-19T05:29:04.669Z,4.90
2018-09-19T05:31:32.230Z,5.70
2018-09-19T05:34:00.955Z,5.23
2018-09-19T05:36:28.213Z,4.90
2018-09-19T05:38:56.489Z,5.67
2018-09-19T05:41:24.525Z,4.77
2018-09-19T05:43:52.363Z,4.47
2018-09-19T05:46:19.682Z,4.90
2018-09-19T05:48:46.906Z,4.60
2018-09-19T05:51:14.179Z,4.90
2018-09-19T05:53:41.399Z,4.20
2018-09-19T05:56:08.668Z,4.58
2018-09-19T05:58:35.866Z,4.55
2018-09-19T06:01:03.279Z,3.77
2018-09-19T06:03:30.492Z,3.87
2018-09-19T06:05:57.771Z,4.45
2018-09-19T06:08:25.081Z,3.50
2018-09-19T06:10:52.325Z,3.70
2018-09-19T06:13:19.596Z,3.52
2018-09-19T06:15:46.873Z,3.35
2018-09-19T06:18:14.158Z,3.92
2018-09-19T06:20:41.387Z,3.50
2018-09-19T06:23:08.653Z,3.35
2018-09-19T06:25:35.909Z,3.58
2018-09-19T06:28:03.201Z,4.37
2018-09-19T06:30:30.501Z,3.98
2018-09-19T06:32:57.856Z,3.62
2018-09-19T06:35:25.123Z,3.40
2018-09-19T06:37:52.350Z,3.30
2018-09-19T06:40:19.630Z,3.47
2018-09-19T06:42:46.903Z,3.15
2018-09-19T06:45:14.150Z,3.72
2018-09-19T06:47:41.411Z,3.92
2018-09-19T06:50:08.673Z,3.10
2018-09-19T06:52:36.044Z,3.33
2018-09-19T06:55:03.232Z,3.47
2018-09-19T06:57:30.505Z,3.60
2018-09-19T06:59:57.792Z,3.17
2018-09-19T07:02:25.055Z,4.33
2018-09-19T07:04:52.309Z,3.20
2018-09-19T07:07:19.635Z,3.27
2018-09-19T07:09:46.921Z,3.58
2018-09-19T07:12:14.208Z,3.55
2018-09-19T07:14:41.478Z,3.08
2018-09-19T07:17:08.717Z,3.30
2018-09-19T07:19:36.132Z,3.50
2018-09-19T07:22:03.339Z,3.80
2018-09-19T07:24:30.583Z,3.37
2018-09-19T07:26:57.758Z,3.25
2018-09-19T07:29:24.992Z,3.42
2018-09-19T07:31:52.246Z,3.72
2018-09-19T07:34:20.013Z,3.80
2018-09-19T07:36:47.286Z,3.27
2018-09-19T07:39:14.533Z,3.33
2018-09-19T07:41:41.744Z,3.62
2018-09-19T07:44:09.006Z,3.47
2018-09-19T07:46:36.333Z,3.17
2018-09-19T07:49:03.537Z,3.25
2018-09-19T07:51:30.835Z,3.80
2018-09-19T07:53:58.149Z,3.55
2018-09-19T07:56:25.391Z,4.03
2018-09-19T07:58:53.492Z,3.37
2018-09-19T08:01:22.205Z,3.60
2018-09-19T08:03:49.394Z,3.40
2018-09-19T08:06:16.626Z,3.50
2018-09-19T08:08:43.856Z,4.00
2018-09-19T08:11:11.106Z,3.58
2018-09-19T08:13:38.391Z,3.10
2018-09-19T08:16:05.632Z,3.55
2018-09-19T08:18:32.866Z,3.45
2018-09-19T08:21:00.115Z,3.25
2018-09-19T08:23:27.397Z,2.75
2018-09-19T08:25:54.686Z,3.00
2018-09-19T08:28:21.936Z,3.95
2018-09-19T08:30:49.155Z,3.52
2018-09-19T08:33:16.438Z,3.25
2018-09-19T08:35:43.661Z,2.47
2018-09-19T08:38:10.941Z,2.40
2018-09-19T08:40:38.215Z,2.25
2018-09-19T08:43:05.495Z,2.50
2018-09-19T08:45:32.754Z,2.47
2018-09-19T08:48:00.102Z,2.60
2018-09-19T08:50:27.403Z,2.25
2018-09-19T08:52:54.624Z,2.47
2018-09-19T08:55:21.853Z,2.50
2018-09-19T08:57:49.069Z,2.67
2018-09-19T09:00:16.364Z,5.12
2018-09-19T09:02:43.601Z,2.87
2018-09-19T09:05:10.869Z,3.05
2018-09-19T09:07:38.120Z,3.15
2018-09-19T09:10:05.416Z,2.83
2018-09-19T09:12:32.815Z,4.03
2018-09-19T09:15:00.070Z,4.40
2018-09-19T09:17:27.328Z,5.25
2018-09-19T09:19:54.736Z,4.87
2018-09-19T09:22:21.920Z,5.47
2018-09-19T09:24:49.230Z,6.33
2018-09-19T09:27:16.558Z,5.75
2018-09-19T09:29:43.742Z,4.75
2018-09-19T09:32:10.954Z,6.28
2018-09-19T09:34:38.144Z,6.22
2018-09-19T09:37:05.398Z,6.05
2018-09-19T09:39:32.626Z,6.50
2018-09-19T09:41:59.907Z,6.42
2018-09-19T09:44:27.358Z,4.40
2018-09-19T09:46:54.640Z,4.03
2018-09-19T09:49:21.886Z,4.17
2018-09-19T09:51:49.141Z,3.95
2018-09-19T09:54:16.421Z,3.30
2018-09-19T09:56:43.680Z,3.35
2018-09-19T09:59:10.918Z,3.27
2018-09-19T10:01:38.188Z,3.77
2018-09-19T10:04:05.678Z,3.60
2018-09-19T10:06:33.070Z,3.65
2018-09-19T10:09:00.276Z,4.28
2018-09-19T10:11:27.527Z,4.42
2018-09-19T10:13:54.741Z,4.17
2018-09-19T10:16:22.005Z,4.80
2018-09-19T10:18:49.253Z,3.70
2018-09-19T10:21:16.841Z,3.65
2018-09-19T10:23:44.033Z,3.87
2018-09-19T10:26:11.389Z,4.12
2018-09-19T10:28:38.701Z,3.67
2018-09-19T10:31:05.954Z,3.77
2018-09-19T10:33:33.124Z,3.50
2018-09-19T10:36:00.377Z,3.25
2018-09-19T10:38:27.629Z,2.87
2018-09-19T10:40:55.140Z,3.47
2018-09-19T10:43:22.397Z,2.95
2018-09-19T10:45:49.669Z,2.75
2018-09-19T10:48:16.986Z,3.02
2018-09-19T10:50:44.237Z,2.90
2018-09-19T10:53:11.550Z,2.80
2018-09-19T10:55:38.834Z,2.42
2018-09-19T10:58:06.130Z,2.37
2018-09-19T11:00:33.423Z,2.45
2018-09-19T11:03:00.665Z,2.00
2018-09-19T11:05:27.883Z,2.62
2018-09-19T11:07:55.136Z,2.22
2018-09-19T11:10:22.437Z,2.10
2018-09-19T11:12:49.736Z,2.58
2018-09-19T11:15:16.987Z,2.30
2018-09-19T11:17:44.240Z,2.17
2018-09-19T11:20:11.505Z,2.52
2018-09-19T11:22:38.785Z,2.25
2018-09-19T11:25:06.042Z,2.08
2018-09-19T11:27:33.261Z,3.12
2018-09-19T11:30:00.516Z,2.45
2018-09-19T11:32:27.779Z,2.83
2018-09-19T11:34:55.008Z,6.80
2018-09-19T11:37:22.274Z,2.98
2018-09-19T11:39:49.533Z,2.27
2018-09-19T11:42:16.828Z,6.72
2018-09-19T11:44:44.083Z,7.47
2018-09-19T11:47:11.349Z,2.90
2018-09-19T11:49:38.661Z,3.35
2018-09-19T11:52:05.892Z,2.40
2018-09-19T11:54:33.220Z,11.85
2018-09-19T11:57:00.405Z,4.30
2018-09-19T11:59:27.786Z,5.53
2018-09-19T12:01:55.210Z,2.83
2018-09-19T12:04:22.681Z,8.63
2018-09-19T12:06:49.958Z,3.22
2018-09-19T12:09:17.275Z,3.37
2018-09-19T12:11:44.527Z,3.33
2018-09-19T12:14:11.786Z,3.20
2018-09-19T12:16:38.998Z,3.22
2018-09-19T12:19:06.527Z,2.80
2018-09-19T12:21:33.955Z,3.60
2018-09-19T12:24:01.244Z,2.92
2018-09-19T12:26:28.542Z,3.50
2018-09-19T12:28:55.785Z,2.98
2018-09-19T12:31:23.214Z,2.85
2018-09-19T12:33:50.769Z,3.50
2018-09-19T12:36:18.265Z,2.92
2018-09-19T12:38:45.584Z,3.50
2018-09-19T12:41:12.960Z,3.02
2018-09-19T12:43:40.581Z,2.90
2018-09-19T12:46:07.987Z,3.12
2018-09-19T12:48:35.257Z,3.27
2018-09-19T12:51:02.472Z,3.27
2018-09-19T12:53:29.741Z,3.33
2018-09-19T12:55:56.989Z,3.05
2018-09-19T12:58:24.283Z,3.15
2018-09-19T13:00:51.985Z,3.17
2018-09-19T13:03:19.237Z,2.70
2018-09-19T13:05:46.542Z,3.10
2018-09-19T13:08:13.773Z,2.87
2018-09-19T13:10:41.029Z,2.92
2018-09-19T13:13:08.316Z,2.98
2018-09-19T13:15:35.588Z,3.15
2018-09-19T13:18:03.225Z,3.17
2018-09-19T13:20:30.512Z,2.90
2018-09-19T13:22:57.847Z,2.75
2018-09-19T13:25:25.097Z,3.02
2018-09-19T13:27:52.584Z,3.17
2018-09-19T13:30:19.953Z,2.90
2018-09-19T13:32:47.293Z,3.08
2018-09-19T13:35:14.644Z,2.80
2018-09-19T13:37:41.891Z,3.12
2018-09-19T13:40:09.169Z,2.83
2018-09-19T13:42:37.337Z,3.20
2018-09-19T13:45:04.751Z,2.83
2018-09-19T13:47:32.148Z,3.72
2018-09-19T13:50:03.001Z,3.10
2018-09-19T13:52:30.301Z,3.12
2018-09-19T13:54:57.572Z,3.30
2018-09-19T13:57:25.766Z,2.90
2018-09-19T13:59:53.053Z,3.10
2018-09-19T14:02:20.327Z,3.27
2018-09-19T14:04:47.657Z,3.50
2018-09-19T14:07:15.018Z,3.20
2018-09-19T14:09:42.278Z,3.33
2018-09-19T14:12:09.557Z,3.80
2018-09-19T14:14:36.809Z,3.25
2018-09-19T14:17:04.076Z,3.37
2018-09-19T14:19:31.383Z,3.15
2018-09-19T14:21:58.673Z,3.87
2018-09-19T14:24:25.977Z,3.33
2018-09-19T14:26:53.302Z,34.80
2018-09-19T14:29:20.605Z,7.53
2018-09-19T14:31:48.064Z,3.42
2018-09-19T14:34:15.451Z,4.37
2018-09-19T14:36:42.693Z,3.10
2018-09-19T14:39:09.946Z,3.08
2018-09-19T14:41:37.171Z,3.05
2018-09-19T14:44:04.451Z,2.85
2018-09-19T14:46:31.730Z,3.40
2018-09-19T14:48:59.125Z,3.20
2018-09-19T14:51:26.314Z,3.37
2018-09-19T14:53:53.525Z,3.20
2018-09-19T14:56:20.744Z,3.20
2018-09-19T14:58:48.005Z,3.10
2018-09-19T15:01:15.496Z,3.47
2018-09-19T15:03:42.736Z,3.50
2018-09-19T15:06:09.984Z,2.92
2018-09-19T15:08:37.224Z,2.90
2018-09-19T15:11:04.487Z,2.90
2018-09-19T15:13:31.757Z,2.83
2018-09-19T15:15:59.027Z,3.02
2018-09-19T15:18:26.232Z,3.25
2018-09-19T15:20:53.469Z,3.60
2018-09-19T15:23:20.712Z,3.33
2018-09-19T15:25:48.002Z,3.20
2018-09-19T15:28:15.204Z,3.30
2018-09-19T15:30:42.444Z,3.25
2018-09-19T15:33:09.664Z,3.98
2018-09-19T15:35:36.941Z,3.80
2018-09-19T15:38:04.196Z,3.77
2018-09-19T15:40:31.521Z,5.08
2018-09-19T15:42:59.411Z,3.80
2018-09-19T15:45:26.841Z,3.50
2018-09-19T15:47:54.259Z,3.40
2018-09-19T15:50:24.396Z,4.35
2018-09-19T15:52:51.656Z,3.67
2018-09-19T15:55:18.928Z,3.58
2018-09-19T15:57:46.237Z,3.70
2018-09-19T16:00:14.087Z,3.22
2018-09-19T16:02:41.319Z,3.72
2018-09-19T16:05:08.888Z,3.65
2018-09-19T16:07:36.211Z,4.28
2018-09-19T16:10:03.505Z,3.70
2018-09-19T16:12:30.727Z,3.87
2018-09-19T16:14:58.028Z,3.92
2018-09-19T16:17:25.301Z,4.22
2018-09-19T16:19:52.536Z,3.85
2018-09-19T16:22:19.792Z,3.70
2018-09-19T16:24:47.005Z,4.17
2018-09-19T16:27:14.228Z,4.10
2018-09-19T16:29:41.520Z,4.22
2018-09-19T16:32:08.746Z,4.15
2018-09-19T16:34:36.013Z,4.47
2018-09-19T16:37:03.300Z,4.12
2018-09-19T16:39:30.533Z,4.53
2018-09-19T16:41:57.793Z,4.15
2018-09-19T16:44:25.957Z,4.28
2018-09-19T16:46:53.243Z,4.80
2018-09-19T16:49:20.532Z,7.22
2018-09-19T16:51:47.781Z,5.83
2018-09-19T16:54:14.962Z,5.78
2018-09-19T16:56:42.223Z,10.80
2018-09-19T16:59:09.500Z,6.12
2018-09-19T17:01:36.797Z,9.63
2018-09-19T17:04:04.077Z,5.20
2018-09-19T17:06:31.396Z,4.30
2018-09-19T17:08:58.668Z,4.10
2018-09-19T17:11:25.897Z,4.37
2018-09-19T17:13:53.137Z,3.92
2018-09-19T17:16:20.383Z,4.53
2018-09-19T17:18:47.944Z,4.80
2018-09-19T17:21:15.688Z,5.08
2018-09-19T17:23:43.038Z,4.15
2018-09-19T17:26:10.349Z,4.28
2018-09-19T17:28:37.773Z,4.45
2018-09-19T17:31:05.116Z,4.95
2018-09-19T17:33:32.376Z,4.80
2018-09-19T17:35:59.596Z,4.78
2018-09-19T17:38:27.845Z,4.92
2018-09-19T17:40:55.068Z,4.60
2018-09-19T17:43:22.325Z,4.85
2018-09-19T17:45:49.634Z,5.00
2018-09-19T17:48:16.934Z,5.28
2018-09-19T17:50:44.222Z,4.60
2018-09-19T17:53:11.465Z,5.53
2018-09-19T17:55:38.768Z,5.00
2018-09-19T17:58:06.042Z,5.42
2018-09-19T18:00:33.333Z,5.60
2018-09-19T18:03:00.628Z,5.17
2018-09-19T18:05:27.913Z,5.92
2018-09-19T18:07:55.396Z,5.65
2018-09-19T18:10:22.690Z,4.87
2018-09-19T18:12:49.966Z,5.30
2018-09-19T18:15:17.251Z,5.30
2018-09-19T18:17:44.612Z,5.35
2018-09-19T18:20:11.864Z,5.95
2018-09-19T18:22:39.113Z,5.33
2018-09-19T18:25:06.338Z,5.33
2018-09-19T18:27:33.584Z,5.72
2018-09-19T18:30:00.869Z,5.65
2018-09-19T18:32:28.092Z,6.53
2018-09-19T18:34:55.425Z,5.83
2018-09-19T18:37:22.761Z,6.70
2018-09-19T18:39:50.194Z,6.42
2018-09-19T18:42:17.495Z,5.97
2018-09-19T18:44:44.807Z,6.17
2018-09-19T18:47:12.073Z,6.28
2018-09-19T18:49:39.300Z,5.67
2018-09-19T18:52:06.576Z,5.37
2018-09-19T18:54:33.813Z,6.70
2018-09-19T18:57:01.114Z,5.42
2018-09-19T18:59:28.360Z,5.72
2018-09-19T19:01:55.674Z,5.45
2018-09-19T19:04:22.960Z,5.58
2018-09-19T19:06:50.410Z,5.05
2018-09-19T19:09:17.669Z,5.65
2018-09-19T19:11:44.944Z,5.28
2018-09-19T19:14:12.189Z,5.20
2018-09-19T19:16:39.462Z,5.15
2018-09-19T19:19:06.712Z,5.80
2018-09-19T19:21:34.226Z,5.65
2018-09-19T19:24:01.470Z,6.00
2018-09-19T19:26:28.942Z,6.20
2018-09-19T19:28:56.201Z,8.10
2018-09-19T19:31:23.508Z,10.75
2018-09-19T19:33:50.976Z,7.85
2018-09-19T19:36:18.224Z,8.48
2018-09-19T19:38:45.556Z,7.58
2018-09-19T19:41:12.855Z,7.08
2018-09-19T19:43:40.179Z,8.40
2018-09-19T19:46:08.438Z,9.30
2018-09-19T19:48:35.709Z,7.15
2018-09-19T19:51:02.971Z,8.25
2018-09-19T19:53:30.277Z,8.00
2018-09-19T19:55:57.553Z,6.28
2018-09-19T19:58:24.863Z,8.00
2018-09-19T20:00:52.132Z,8.63
2018-09-19T20:03:19.627Z,7.17
2018-09-19T20:05:46.934Z,10.35
2018-09-19T20:08:14.176Z,8.70
2018-09-19T20:10:41.470Z,9.83
2018-09-19T20:13:08.689Z,6.42
2018-09-19T20:15:35.974Z,6.12
2018-09-19T20:18:03.193Z,7.55
2018-09-19T20:20:30.517Z,6.87
2018-09-19T20:22:57.742Z,5.60
2018-09-19T20:25:25.000Z,5.58
2018-09-19T20:27:52.261Z,6.05
2018-09-19T20:30:19.499Z,6.35
2018-09-19T20:32:46.780Z,6.35
2018-09-19T20:35:14.060Z,6.15
2018-09-19T20:37:41.288Z,6.30
2018-09-19T20:40:08.517Z,5.97
2018-09-19T20:42:35.758Z,5.87
2018-09-19T20:45:03.233Z,6.22
2018-09-19T20:47:30.548Z,7.53
2018-09-19T20:49:57.848Z,6.30
2018-09-19T20:52:25.095Z,6.67
2018-09-19T20:54:52.350Z,7.35
2018-09-19T20:57:19.766Z,7.45
2018-09-19T20:59:47.030Z,5.87
2018-09-19T21:02:14.513Z,6.25
2018-09-19T21:04:42.057Z,6.37
2018-09-19T21:07:09.369Z,6.45
2018-09-19T21:09:36.736Z,7.15
2018-09-19T21:12:04.040Z,6.58
2018-09-19T21:14:31.346Z,6.87
2018-09-19T21:16:58.643Z,7.07
2018-09-19T21:19:25.900Z,6.50
2018-09-19T21:21:53.559Z,6.28
2018-09-19T21:24:21.377Z,6.17
2018-09-19T21:26:48.840Z,6.30
2018-09-19T21:29:16.145Z,7.23
2018-09-19T21:31:43.416Z,6.78
2018-09-19T21:34:10.738Z,7.53
2018-09-19T21:36:38.013Z,6.70
2018-09-19T21:39:06.786Z,8.27
2018-09-19T21:41:34.092Z,7.12
2018-09-19T21:44:01.517Z,7.75
2018-09-19T21:46:28.695Z,7.62
2018-09-19T21:48:55.886Z,6.90
2018-09-19T21:51:23.176Z,7.08
2018-09-19T21:53:50.454Z,7.27
2018-09-19T21:56:20.649Z,7.47
2018-09-19T21:58:47.867Z,7.23
2018-09-19T22:01:19.731Z,7.33
2018-09-19T22:03:47.037Z,7.50
2018-09-19T22:06:14.308Z,6.70
2018-09-19T22:08:41.570Z,7.20
2018-09-19T22:11:08.840Z,7.63
2018-09-19T22:13:36.158Z,6.63
2018-09-19T22:16:03.404Z,7.43
2018-09-19T22:18:30.699Z,7.05
2018-09-19T22:20:57.900Z,7.65
2018-09-19T22:23:28.396Z,7.53
2018-09-19T22:25:55.711Z,7.50
2018-09-19T22:28:22.976Z,8.07
2018-09-19T22:30:50.348Z,7.73
2018-09-19T22:33:17.570Z,7.47
2018-09-19T22:35:44.800Z,7.93
2018-09-19T22:38:12.077Z,8.50
2018-09-19T22:40:39.354Z,7.37
2018-09-19T22:43:06.581Z,8.00
2018-09-19T22:45:33.814Z,8.03
2018-09-19T22:48:01.170Z,7.43
2018-09-19T22:50:28.478Z,9.03
2018-09-19T22:52:55.777Z,8.23
2018-09-19T22:55:23.049Z,8.23
2018-09-19T22:57:50.349Z,8.33
2018-09-19T23:00:17.612Z,8.10
2018-09-19T23:02:44.848Z,8.43
2018-09-19T23:05:12.161Z,7.37
2018-09-19T23:07:39.388Z,7.83
2018-09-19T23:10:06.700Z,7.80
2018-09-19T23:12:33.936Z,8.20
2018-09-19T23:15:01.201Z,7.43
2018-09-19T23:17:28.468Z,7.80
2018-09-19T23:19:55.742Z,8.07
2018-09-19T23:22:23.024Z,8.57
2018-09-19T23:24:50.336Z,7.77
2018-09-19T23:27:17.518Z,8.43
2018-09-19T23:29:44.803Z,8.40
2018-09-19T23:32:12.013Z,7.60
2018-09-19T23:34:39.269Z,7.77
2018-09-19T23:37:06.502Z,8.10
2018-09-19T23:39:33.725Z,8.70
2018-09-19T23:42:00.986Z,8.73
2018-09-19T23:44:28.277Z,8.80
2018-09-19T23:46:55.594Z,8.23
2018-09-19T23:49:22.888Z,8.23
2018-09-19T23:51:50.106Z,8.33
2018-09-19T23:54:17.369Z,8.50
2018-09-19T23:56:44.597Z,8.90
2018-09-19T23:59:11.869Z,8.07
